Anadarko, Texas
Current Conditions -  °F | °C
As of 5:35 PM on Thursday 18 Dec 2014 (Local Time) from KRFI Reporting Station
Overcast Overcast  
Wind Chill: 51°   Ceiling: 900
Heat Index: 51°   Visibility: 10mi
Dew Point: 49°   Wind: 5mph
Humidity: 92%   Direction: 30°NNE
Pressure: 30.12"   Gusts: NA
Location:  31.9447°N, 94.855°W
Report Text: KRFI 182335Z AUTO 03004KT 10SM OVC009 11/09 A3012 RMK AO2 T01060094
Loading
Personal Weather Stations






























Interactive Weather Map New forecast layout! Learn more

10-Day Weather Forecast

Advertisements
Track Severe Weather on mobile